Time;durP1;ratioP1;P1;durP2;ratioP2;P2;SDS_P1;SDS_P2;PMS_P1;PMS_P2;Temp;Humidity;BMP_temperature;BMP_pressure;BME280_temperature;BME280_humidity;BME280_pressure;Samples;Min_cycle;Max_cycle;Signal;HPM_P1;HPM_P2
2023/10/25 00:01:07;;;;;;;0.30;0.20;;;20.00;99.90;;;;;;5047943;28;20205;-78
2023/10/25 00:03:36;;;;;;;0.40;0.20;;;20.00;99.90;;;;;;5046031;28;20169;-83
2023/10/25 00:06:02;;;;;;;0.30;0.20;;;19.90;99.90;;;;;;5046248;28;20454;-83
2023/10/25 00:08:28;;;;;;;0.97;0.97;;;19.90;99.90;;;;;;5047866;28;20441;-79
2023/10/25 00:11:02;;;;;;;0.30;0.20;;;19.90;99.90;;;;;;5045884;28;20482;-84
2023/10/25 00:13:28;;;;;;;0.40;0.20;;;19.80;99.90;;;;;;5047225;28;20657;-78
2023/10/25 00:15:53;;;;;;;2.00;1.90;;;19.90;99.90;;;;;;5047154;28;20443;-79
2023/10/25 00:18:19;;;;;;;0.30;0.20;;;19.90;99.90;;;;;;5047067;28;20630;-82
2023/10/25 00:20:45;;;;;;;1.90;1.80;;;19.90;99.90;;;;;;5045611;28;20316;-79
2023/10/25 00:23:10;;;;;;;0.30;0.30;;;19.80;99.90;;;;;;5045708;28;20181;-84
2023/10/25 00:25:36;;;;;;;1.03;1.03;;;19.80;99.90;;;;;;5045607;28;20228;-78
2023/10/25 00:28:01;;;;;;;0.40;0.37;;;19.80;99.90;;;;;;5046947;28;20173;-82
2023/10/25 00:30:27;;;;;;;0.30;0.20;;;19.70;99.90;;;;;;5045821;28;20267;-79
2023/10/25 00:32:53;;;;;;;0.30;0.20;;;19.60;99.90;;;;;;5046272;28;20174;-78
2023/10/25 00:35:18;;;;;;;0.30;0.20;;;19.50;99.90;;;;;;5047318;28;20209;-78
2023/10/25 00:37:44;;;;;;;0.40;0.20;;;19.50;99.90;;;;;;5045785;28;20517;-83
2023/10/25 00:40:10;;;;;;;0.30;0.20;;;19.40;99.90;;;;;;5045338;28;20212;-78
2023/10/25 00:42:35;;;;;;;0.30;0.20;;;19.30;99.90;;;;;;5046480;28;20459;-80
2023/10/25 00:45:01;;;;;;;0.30;0.20;;;19.30;99.90;;;;;;5046743;28;20579;-78
2023/10/25 00:47:27;;;;;;;1.47;1.37;;;19.30;99.90;;;;;;5045964;28;20503;-85
2023/10/25 00:49:53;;;;;;;0.67;0.50;;;19.30;99.90;;;;;;5045158;28;20677;-83
2023/10/25 00:52:19;;;;;;;0.30;0.30;;;19.20;99.90;;;;;;5046378;28;20181;-79
2023/10/25 00:54:45;;;;;;;0.30;0.20;;;19.20;99.90;;;;;;5045148;28;20491;-84
2023/10/25 00:57:12;;;;;;;0.30;0.20;;;19.10;99.90;;;;;;5044963;28;20414;-78
2023/10/25 00:59:38;;;;;;;0.30;0.20;;;19.10;99.90;;;;;;5046625;28;20423;-84
2023/10/25 01:02:05;;;;;;;2.00;1.90;;;19.10;99.90;;;;;;5044873;28;20829;-78
2023/10/25 01:04:31;;;;;;;0.67;0.67;;;19.10;99.90;;;;;;5045363;28;21078;-84
2023/10/25 01:06:56;;;;;;;0.30;0.30;;;19.10;99.90;;;;;;5046493;28;20540;-78
2023/10/25 01:09:22;;;;;;;0.30;0.20;;;19.00;99.90;;;;;;5045842;28;20240;-78
2023/10/25 01:11:48;;;;;;;0.30;0.20;;;19.00;99.90;;;;;;5044183;28;20464;-78
2023/10/25 01:14:13;;;;;;;0.33;0.30;;;18.90;99.90;;;;;;5046168;28;20173;-78
2023/10/25 01:16:39;;;;;;;1.60;1.50;;;18.90;99.90;;;;;;5046013;28;20205;-78
2023/10/25 01:19:05;;;;;;;0.30;0.20;;;18.90;99.90;;;;;;5045946;28;20174;-78
2023/10/25 01:21:31;;;;;;;2.17;2.00;;;19.00;99.90;;;;;;5044435;28;20196;-78
2023/10/25 01:23:56;;;;;;;10.17;9.43;;;18.90;99.90;;;;;;5045930;28;20399;-83
2023/10/25 01:26:22;;;;;;;0.40;0.30;;;18.90;99.90;;;;;;5045983;28;20958;-84
2023/10/25 01:28:48;;;;;;;0.30;0.20;;;18.90;99.90;;;;;;5046431;28;20166;-83
2023/10/25 01:31:14;;;;;;;0.40;0.20;;;18.90;99.90;;;;;;5045697;28;20197;-78
2023/10/25 01:33:40;;;;;;;1.10;1.10;;;18.90;99.90;;;;;;5078477;28;20547;-83
2023/10/25 01:36:06;;;;;;;1.10;1.10;;;18.90;99.90;;;;;;5046338;28;20456;-84
2023/10/25 01:38:32;;;;;;;0.30;0.20;;;18.90;99.90;;;;;;5044127;28;20259;-78
2023/10/25 01:40:57;;;;;;;0.40;0.40;;;18.90;99.90;;;;;;5046317;28;20201;-83
2023/10/25 01:43:24;;;;;;;0.40;0.30;;;18.90;99.90;;;;;;5045800;28;20906;-78
2023/10/25 01:45:50;;;;;;;0.30;0.20;;;18.80;99.90;;;;;;5045911;28;20220;-78
2023/10/25 01:48:15;;;;;;;0.60;0.60;;;18.80;99.90;;;;;;5044247;28;20398;-78
2023/10/25 01:50:41;;;;;;;0.30;0.30;;;18.80;99.90;;;;;;5046379;28;20220;-84
2023/10/25 01:53:07;;;;;;;0.83;0.83;;;18.70;99.90;;;;;;5045943;28;20181;-83
2023/10/25 01:55:32;;;;;;;0.30;0.20;;;18.70;99.90;;;;;;5044635;28;20445;-83
2023/10/25 01:57:58;;;;;;;0.30;0.20;;;18.70;99.90;;;;;;5044340;28;20182;-83
2023/10/25 02:00:24;;;;;;;3.50;3.30;;;18.80;99.90;;;;;;5046114;28;20201;-84
2023/10/25 02:02:50;;;;;;;2.40;2.30;;;18.70;99.90;;;;;;5045478;28;20575;-78
2023/10/25 02:05:15;;;;;;;0.30;0.20;;;18.80;99.90;;;;;;5045510;28;20226;-78
2023/10/25 02:07:41;;;;;;;0.30;0.30;;;18.70;99.90;;;;;;5043992;28;20185;-78
2023/10/25 02:10:07;;;;;;;0.40;0.30;;;18.70;99.90;;;;;;5045866;28;20197;-84
2023/10/25 02:12:32;;;;;;;0.30;0.20;;;18.70;99.90;;;;;;5045159;28;20777;-84
2023/10/25 02:14:58;;;;;;;1.67;0.97;;;18.70;99.90;;;;;;5045513;28;20545;-84
2023/10/25 02:17:24;;;;;;;0.30;0.20;;;18.70;99.90;;;;;;5045478;28;20259;-78
2023/10/25 02:19:49;;;;;;;0.40;0.20;;;18.60;99.90;;;;;;5045584;28;20749;-78
2023/10/25 02:22:15;;;;;;;0.40;0.20;;;18.60;99.90;;;;;;5046016;28;20426;-79
2023/10/25 02:24:40;;;;;;;2.00;1.90;;;18.60;99.90;;;;;;5049838;28;20747;-84
2023/10/25 02:27:06;;;;;;;0.30;0.27;;;18.60;99.90;;;;;;5049556;28;20363;-78
2023/10/25 02:29:32;;;;;;;4.10;3.83;;;18.60;99.90;;;;;;5049669;28;20199;-84
2023/10/25 02:31:58;;;;;;;0.40;0.30;;;18.60;99.90;;;;;;5049384;28;20189;-78
2023/10/25 02:34:23;;;;;;;0.30;0.20;;;18.70;99.90;;;;;;5049316;28;20200;-78
2023/10/25 02:36:49;;;;;;;2.50;2.30;;;18.70;99.90;;;;;;5048812;28;20220;-84
2023/10/25 02:39:17;;;;;;;0.40;0.30;;;18.70;99.90;;;;;;5049266;28;20197;-84
2023/10/25 02:41:43;;;;;;;0.30;0.20;;;18.80;99.90;;;;;;5080426;28;20231;-78
2023/10/25 02:44:08;;;;;;;0.30;0.20;;;18.80;99.90;;;;;;5047389;28;20498;-84
2023/10/25 02:46:34;;;;;;;0.40;0.20;;;18.80;99.90;;;;;;5048999;28;20193;-84
2023/10/25 02:48:59;;;;;;;0.30;0.20;;;18.90;99.90;;;;;;5080964;28;20199;-84
2023/10/25 02:51:25;;;;;;;0.30;0.20;;;18.90;99.90;;;;;;5047998;28;20622;-78
2023/10/25 02:53:52;;;;;;;0.30;0.20;;;18.90;99.90;;;;;;5048790;28;20213;-82
2023/10/25 02:56:18;;;;;;;0.40;0.40;;;18.90;99.90;;;;;;5048852;28;20193;-83
2023/10/25 02:58:44;;;;;;;0.30;0.20;;;18.80;99.90;;;;;;5049002;28;20480;-79
2023/10/25 03:01:20;;;;;;;0.30;0.20;;;18.80;99.90;;;;;;5049020;28;20208;-78
2023/10/25 03:03:46;;;;;;;0.50;0.50;;;18.70;99.90;;;;;;5048984;28;20161;-84
2023/10/25 03:06:12;;;;;;;0.30;0.20;;;18.80;99.90;;;;;;5048856;28;20452;-79
2023/10/25 03:08:37;;;;;;;0.30;0.20;;;18.70;99.90;;;;;;5048650;28;20413;-82
2023/10/25 03:11:03;;;;;;;0.30;0.20;;;18.70;99.90;;;;;;5048177;28;20232;-78
2023/10/25 03:13:29;;;;;;;5.90;5.30;;;18.70;99.90;;;;;;5048484;28;20196;-84
2023/10/25 03:15:57;;;;;;;0.30;0.20;;;18.70;99.90;;;;;;5048236;28;20509;-84
2023/10/25 03:18:23;;;;;;;0.30;0.20;;;18.60;99.90;;;;;;5048246;28;20492;-78
2023/10/25 03:20:48;;;;;;;0.30;0.20;;;18.60;99.90;;;;;;5048629;28;21050;-78
2023/10/25 03:23:14;;;;;;;0.30;0.20;;;18.60;99.90;;;;;;5047667;28;20375;-78
2023/10/25 03:25:40;;;;;;;3.50;1.37;;;18.60;99.90;;;;;;5046954;28;20232;-78
2023/10/25 03:28:05;;;;;;;0.30;0.20;;;18.50;99.90;;;;;;5048029;28;20179;-83
2023/10/25 03:30:32;;;;;;;0.30;0.20;;;18.60;99.90;;;;;;5048238;28;20621;-84
2023/10/25 03:32:58;;;;;;;0.30;0.20;;;18.50;99.90;;;;;;5046820;28;20208;-84
2023/10/25 03:35:23;;;;;;;0.40;0.40;;;18.50;99.90;;;;;;5046946;28;20441;-78
2023/10/25 03:37:49;;;;;;;0.30;0.20;;;18.40;99.90;;;;;;5046617;28;20177;-79
2023/10/25 03:40:15;;;;;;;0.57;0.57;;;18.40;99.90;;;;;;5047924;28;20227;-84
2023/10/25 03:42:40;;;;;;;0.30;0.20;;;18.40;99.90;;;;;;5046158;28;20423;-78
2023/10/25 03:45:07;;;;;;;0.30;0.20;;;18.40;99.90;;;;;;5046081;28;20658;-83
2023/10/25 03:47:37;;;;;;;0.30;0.20;;;18.30;99.90;;;;;;5046818;28;20418;-78
2023/10/25 03:50:04;;;;;;;2.10;1.70;;;18.30;99.90;;;;;;5047454;28;20465;-87
2023/10/25 03:52:30;;;;;;;6.43;3.23;;;18.30;99.90;;;;;;5046197;28;20422;-86
2023/10/25 03:54:55;;;;;;;0.30;0.20;;;18.20;99.90;;;;;;5046088;28;20993;-80
2023/10/25 03:57:21;;;;;;;0.30;0.20;;;18.30;99.90;;;;;;5046018;28;20665;-78
2023/10/25 03:59:47;;;;;;;1.23;1.23;;;18.30;99.90;;;;;;5047640;28;20191;-83
2023/10/25 04:02:12;;;;;;;0.30;0.20;;;18.30;99.90;;;;;;5079280;28;20542;-84
2023/10/25 04:04:38;;;;;;;0.30;0.20;;;18.30;99.90;;;;;;5047466;28;20671;-84
2023/10/25 04:07:04;;;;;;;0.30;0.20;;;18.30;99.90;;;;;;5046899;28;20184;-78
2023/10/25 04:09:29;;;;;;;0.30;0.20;;;18.30;99.90;;;;;;5047752;28;20445;-83
2023/10/25 04:11:55;;;;;;;0.30;0.20;;;18.30;99.90;;;;;;5045513;28;20262;-84
2023/10/25 04:14:21;;;;;;;0.30;0.20;;;18.30;99.90;;;;;;5047295;28;20272;-84
2023/10/25 04:16:46;;;;;;;0.30;0.20;;;18.30;99.90;;;;;;5047386;28;20191;-84
2023/10/25 04:19:12;;;;;;;0.30;0.20;;;18.30;99.90;;;;;;5046931;28;20206;-79
2023/10/25 04:21:38;;;;;;;0.30;0.20;;;18.20;99.90;;;;;;5045584;28;20272;-84
2023/10/25 04:24:04;;;;;;;0.30;0.20;;;18.20;99.90;;;;;;5045001;28;20231;-78
2023/10/25 04:26:29;;;;;;;0.30;0.20;;;18.20;99.90;;;;;;5047156;28;20642;-78
2023/10/25 04:28:55;;;;;;;0.30;0.30;;;18.20;99.90;;;;;;5045843;28;20425;-82
2023/10/25 04:31:21;;;;;;;0.30;0.20;;;18.20;99.90;;;;;;5047136;28;20201;-78
2023/10/25 04:33:49;;;;;;;0.30;0.20;;;18.20;99.90;;;;;;5046229;28;20612;-78
2023/10/25 04:36:15;;;;;;;0.30;0.20;;;18.10;99.90;;;;;;5046854;28;20595;-84
2023/10/25 04:38:41;;;;;;;0.30;0.20;;;18.10;99.90;;;;;;5044468;28;20409;-82
2023/10/25 04:41:07;;;;;;;0.30;0.20;;;18.10;99.90;;;;;;5046817;28;20264;-84
2023/10/25 04:43:33;;;;;;;2.93;2.83;;;18.00;99.90;;;;;;5045937;28;20406;-81
2023/10/25 04:46:00;;;;;;;0.30;0.20;;;18.00;99.90;;;;;;5044454;28;20354;-87
2023/10/25 04:48:25;;;;;;;0.30;0.20;;;18.00;99.90;;;;;;5046689;28;20225;-78
2023/10/25 04:50:51;;;;;;;0.30;0.20;;;17.90;99.90;;;;;;5045584;28;20993;-78
2023/10/25 04:53:17;;;;;;;0.30;0.20;;;17.90;99.90;;;;;;5046092;28;20210;-85
2023/10/25 04:55:46;;;;;;;0.30;0.20;;;17.90;99.90;;;;;;5043735;28;20368;-84
2023/10/25 04:58:12;;;;;;;0.30;0.20;;;17.90;99.90;;;;;;5045101;28;20178;-84
2023/10/25 05:00:38;;;;;;;0.30;0.20;;;17.80;99.90;;;;;;5046126;28;20776;-84
2023/10/25 05:03:08;;;;;;;0.30;0.20;;;17.80;99.90;;;;;;5043981;28;20901;-79
2023/10/25 05:05:39;;;;;;;0.30;0.20;;;17.70;99.90;;;;;;5043506;28;20513;-84
2023/10/25 05:08:07;;;;;;;2.57;2.47;;;17.70;99.90;;;;;;5043005;28;20925;-84
2023/10/25 05:10:33;;;;;;;0.30;0.20;;;17.70;99.90;;;;;;5044938;28;20492;-83
2023/10/25 05:12:59;;;;;;;0.30;0.20;;;17.70;99.90;;;;;;5044158;28;20448;-79
2023/10/25 05:15:27;;;;;;;0.30;0.20;;;17.80;99.90;;;;;;5042378;28;20546;-84
2023/10/25 05:17:53;;;;;;;0.30;0.20;;;17.80;99.90;;;;;;5040520;28;20761;-84
2023/10/25 05:20:19;;;;;;;0.30;0.20;;;17.80;99.90;;;;;;5042105;28;20988;-78
2023/10/25 05:22:52;;;;;;;0.40;0.20;;;17.90;99.90;;;;;;5041107;28;20813;-79
2023/10/25 05:25:18;;;;;;;0.30;0.20;;;18.00;99.90;;;;;;5043785;28;20901;-83
2023/10/25 05:27:44;;;;;;;0.30;0.20;;;18.00;99.90;;;;;;5035575;28;20541;-78
2023/10/25 05:30:15;;;;;;;0.30;0.20;;;18.00;99.90;;;;;;5038404;28;20541;-78
2023/10/25 05:32:46;;;;;;;0.30;0.20;;;18.10;99.90;;;;;;5039333;28;20490;-78
2023/10/25 05:35:13;;;;;;;0.30;0.20;;;18.10;99.90;;;;;;5041474;28;20586;-83
2023/10/25 05:37:39;;;;;;;14.83;0.87;;;18.20;99.90;;;;;;5040102;28;20504;-83
2023/10/25 05:40:05;;;;;;;0.30;0.20;;;18.20;99.90;;;;;;5040201;28;20559;-78
2023/10/25 05:42:38;;;;;;;0.30;0.20;;;18.20;99.90;;;;;;5036982;28;20392;-78
2023/10/25 05:45:04;;;;;;;0.40;0.40;;;18.30;99.90;;;;;;5034320;28;20587;-78
2023/10/25 05:47:30;;;;;;;0.30;0.20;;;18.30;99.90;;;;;;5037455;28;20516;-83
2023/10/25 05:49:56;;;;;;;0.30;0.20;;;18.20;99.90;;;;;;5040088;28;20452;-78
2023/10/25 05:52:23;;;;;;;0.30;0.20;;;18.10;99.90;;;;;;5038692;28;20785;-83
2023/10/25 05:54:48;;;;;;;0.40;0.20;;;18.00;99.90;;;;;;5036676;28;20206;-78
2023/10/25 05:57:14;;;;;;;0.30;0.20;;;17.80;99.90;;;;;;5036088;28;20426;-78
2023/10/25 05:59:41;;;;;;;0.30;0.20;;;17.70;99.90;;;;;;5043963;28;20191;-84
2023/10/25 06:02:15;;;;;;;0.40;0.40;;;17.60;99.90;;;;;;5038737;28;20437;-84
2023/10/25 06:04:49;;;;;;;0.30;0.20;;;17.60;99.90;;;;;;5040451;28;20524;-79
2023/10/25 06:07:16;;;;;;;0.30;0.30;;;17.60;99.90;;;;;;5041575;28;20417;-85
2023/10/25 06:09:42;;;;;;;0.30;0.20;;;17.50;99.90;;;;;;5069920;28;20428;-84
2023/10/25 06:12:09;;;;;;;0.30;0.20;;;17.50;99.90;;;;;;5043101;28;20468;-85
2023/10/25 06:14:35;;;;;;;0.30;0.20;;;17.40;99.90;;;;;;5043796;28;21122;-85
2023/10/25 06:17:01;;;;;;;0.67;0.60;;;17.40;99.90;;;;;;5038274;28;20461;-85
2023/10/25 06:19:27;;;;;;;0.30;0.20;;;17.40;99.90;;;;;;5039895;28;20547;-78
2023/10/25 06:21:54;;;;;;;0.30;0.20;;;17.40;99.90;;;;;;5035406;28;20925;-85
2023/10/25 06:24:20;;;;;;;1.60;1.60;;;17.40;99.90;;;;;;5025308;28;20481;-80
2023/10/25 06:26:46;;;;;;;0.30;0.20;;;17.50;99.90;;;;;;5040047;28;20527;-85
2023/10/25 06:29:12;;;;;;;0.30;0.20;;;17.50;99.90;;;;;;5044601;28;20558;-79
2023/10/25 06:31:38;;;;;;;0.30;0.20;;;17.50;99.90;;;;;;5041806;28;20186;-79
2023/10/25 06:34:03;;;;;;;0.30;0.20;;;17.50;99.90;;;;;;5033629;28;20183;-79
2023/10/25 06:36:32;;;;;;;0.30;0.20;;;17.40;99.90;;;;;;5037222;28;20226;-79
2023/10/25 06:38:57;;;;;;;0.30;0.20;;;17.50;99.90;;;;;;5034131;28;20235;-79
2023/10/25 06:41:23;;;;;;;0.30;0.20;;;17.60;99.90;;;;;;5045610;28;20538;-79
2023/10/25 06:43:50;;;;;;;0.30;0.20;;;17.60;99.90;;;;;;5044714;28;20168;-84
2023/10/25 06:46:16;;;;;;;0.30;0.20;;;17.70;99.90;;;;;;5044636;28;20767;-78
2023/10/25 06:48:42;;;;;;;0.30;0.20;;;17.80;99.90;;;;;;5043002;28;20417;-84
2023/10/25 06:51:09;;;;;;;0.30;0.20;;;17.80;99.90;;;;;;5034263;28;20459;-79
2023/10/25 06:53:36;;;;;;;5.20;2.33;;;17.90;99.90;;;;;;5044556;28;21142;-86
2023/10/25 06:56:05;;;;;;;0.30;0.20;;;17.80;99.90;;;;;;5068807;28;20497;-80
2023/10/25 06:58:32;;;;;;;0.30;0.20;;;17.80;99.90;;;;;;5043309;28;20413;-84
2023/10/25 07:01:00;;;;;;;0.40;0.20;;;17.80;99.90;;;;;;5040939;28;20971;-84
2023/10/25 07:03:49;;;;;;;0.30;0.20;;;17.70;99.90;;;;;;5064103;28;20437;-78
2023/10/25 07:06:16;;;;;;;0.50;0.50;;;17.70;99.90;;;;;;5037902;28;20471;-77
2023/10/25 07:08:42;;;;;;;0.30;0.20;;;17.70;99.90;;;;;;5039818;28;20405;-78
2023/10/25 07:11:07;;;;;;;0.30;0.20;;;17.70;99.90;;;;;;5042739;28;20889;-85
2023/10/25 07:13:33;;;;;;;0.30;0.20;;;17.60;99.90;;;;;;5067699;28;20400;-79
2023/10/25 07:16:00;;;;;;;0.30;0.20;;;17.60;99.90;;;;;;5042410;28;20250;-85
2023/10/25 07:18:27;;;;;;;0.30;0.20;;;17.60;99.90;;;;;;5044642;28;20434;-79
2023/10/25 07:20:53;;;;;;;0.30;0.20;;;17.50;99.90;;;;;;5045496;28;20226;-79
2023/10/25 07:23:19;;;;;;;0.30;0.20;;;17.50;99.90;;;;;;5044143;28;20900;-83
2023/10/25 07:25:44;;;;;;;0.30;0.20;;;17.50;99.90;;;;;;5043941;28;20230;-85
2023/10/25 07:28:11;;;;;;;0.30;0.20;;;17.50;99.90;;;;;;5039396;28;20845;-84
2023/10/25 07:30:37;;;;;;;0.30;0.20;;;17.50;99.90;;;;;;5039625;28;20853;-78
2023/10/25 07:33:03;;;;;;;0.30;0.20;;;17.50;99.90;;;;;;5042873;28;20511;-79
2023/10/25 07:35:29;;;;;;;0.30;0.20;;;17.60;99.90;;;;;;5043675;28;20536;-79
2023/10/25 07:37:54;;;;;;;0.63;0.63;;;17.60;99.90;;;;;;5042333;28;20498;-84
2023/10/25 07:40:20;;;;;;;0.40;0.40;;;17.70;99.90;;;;;;5044025;28;20611;-86
2023/10/25 07:42:49;;;;;;;0.30;0.20;;;17.70;99.90;;;;;;5044585;28;20179;-79
2023/10/25 07:45:14;;;;;;;0.40;0.30;;;17.70;99.90;;;;;;5043762;28;20887;-80
2023/10/25 07:47:40;;;;;;;0.30;0.20;;;17.80;99.90;;;;;;5041849;28;20796;-79
2023/10/25 07:50:06;;;;;;;0.40;0.20;;;18.00;99.90;;;;;;5043130;28;20445;-78
2023/10/25 07:52:34;;;;;;;0.40;0.30;;;18.30;99.90;;;;;;5061075;28;20180;-83
2023/10/25 07:55:01;;;;;;;0.30;0.30;;;18.80;99.90;;;;;;5046590;28;20454;-84
2023/10/25 07:57:26;;;;;;;0.40;0.20;;;19.60;99.90;;;;;;5076568;28;20488;-78
2023/10/25 07:59:53;;;;;;;0.40;0.20;;;20.50;99.90;;;;;;5045240;28;20442;-79
2023/10/25 08:02:18;;;;;;;0.40;0.20;;;21.40;99.90;;;;;;5042360;28;20412;-84
2023/10/25 08:04:44;;;;;;;0.40;0.20;;;22.40;99.90;;;;;;5060832;28;20471;-84
2023/10/25 08:07:10;;;;;;;1.30;1.27;;;23.20;99.90;;;;;;5045618;28;20179;-79
2023/10/25 08:09:36;;;;;;;0.30;0.20;;;23.90;99.90;;;;;;5039642;28;20443;-78
2023/10/25 08:12:02;;;;;;;0.30;0.20;;;24.40;99.90;;;;;;5055262;28;20744;-84
2023/10/25 08:14:28;;;;;;;0.30;0.20;;;24.70;99.90;;;;;;5055513;28;20436;-85
2023/10/25 08:16:54;;;;;;;0.40;0.30;;;25.00;99.90;;;;;;5038586;28;20492;-85
2023/10/25 08:19:20;;;;;;;0.40;0.30;;;25.40;99.90;;;;;;5037825;28;20198;-84
2023/10/25 08:21:45;;;;;;;0.30;0.20;;;25.70;99.90;;;;;;5044503;28;20521;-85
2023/10/25 08:24:11;;;;;;;0.30;0.20;;;26.20;99.90;;;;;;5036164;28;20244;-84
2023/10/25 08:26:39;;;;;;;0.30;0.20;;;26.50;99.90;;;;;;5035876;28;20189;-84
2023/10/25 08:29:05;;;;;;;0.30;0.30;;;26.50;99.90;;;;;;5031112;28;20776;-78
2023/10/25 08:31:31;;;;;;;0.30;0.20;;;26.10;99.90;;;;;;5035503;28;20430;-78
2023/10/25 08:33:57;;;;;;;0.30;0.20;;;25.50;99.90;;;;;;5068653;28;20831;-79
2023/10/25 08:36:23;;;;;;;0.93;0.60;;;24.80;99.90;;;;;;5034530;28;20457;-79
2023/10/25 08:38:49;;;;;;;0.30;0.20;;;24.20;99.90;;;;;;5038932;28;20433;-78
2023/10/25 08:41:17;;;;;;;0.30;0.20;;;23.50;99.90;;;;;;5038284;28;20718;-78
2023/10/25 08:43:44;;;;;;;0.30;0.20;;;23.00;99.90;;;;;;5039715;28;20202;-84
2023/10/25 08:46:11;;;;;;;0.30;0.20;;;22.50;99.90;;;;;;5041729;28;21008;-79
2023/10/25 08:48:36;;;;;;;0.30;0.20;;;22.10;99.90;;;;;;5036410;28;20580;-79
2023/10/25 08:51:03;;;;;;;0.30;0.20;;;21.90;99.90;;;;;;5038180;28;20485;-78
2023/10/25 08:53:29;;;;;;;0.30;0.20;;;21.80;99.90;;;;;;5031521;28;20216;-78
2023/10/25 08:55:57;;;;;;;0.30;0.20;;;21.60;99.90;;;;;;5038416;28;20462;-78
2023/10/25 08:58:26;;;;;;;0.30;0.20;;;21.40;99.90;;;;;;5035823;28;20419;-84
2023/10/25 09:00:54;;;;;;;0.30;0.20;;;21.10;99.90;;;;;;5037371;28;20725;-84
2023/10/25 09:03:32;;;;;;;0.30;0.20;;;21.00;99.90;;;;;;5038846;28;20403;-78
2023/10/25 09:06:05;;;;;;;0.70;0.70;;;20.90;99.90;;;;;;5041144;28;20540;-83
2023/10/25 09:08:32;;;;;;;0.30;0.20;;;20.80;99.90;;;;;;5073975;28;20445;-78
2023/10/25 09:11:02;;;;;;;0.30;0.20;;;20.80;99.90;;;;;;5040905;28;21007;-78
2023/10/25 09:13:36;;;;;;;0.30;0.20;;;20.80;99.90;;;;;;5040722;28;20459;-85
2023/10/25 09:16:04;;;;;;;0.30;0.20;;;20.80;99.90;;;;;;5040315;28;20820;-78
2023/10/25 09:18:31;;;;;;;0.30;0.20;;;20.90;99.90;;;;;;5065608;28;20428;-78
2023/10/25 09:20:57;;;;;;;0.30;0.20;;;20.90;99.90;;;;;;5062738;28;20469;-84
2023/10/25 09:23:23;;;;;;;0.30;0.20;;;20.90;99.90;;;;;;5039834;28;20886;-84
2023/10/25 09:25:49;;;;;;;0.30;0.20;;;20.80;99.90;;;;;;5039439;28;20498;-84
2023/10/25 09:28:32;;;;;;;0.30;0.20;;;20.70;99.90;;;;;;5039226;28;20184;-84
2023/10/25 09:31:00;;;;;;;0.30;0.20;;;20.80;99.90;;;;;;5034875;28;20512;-78
2023/10/25 09:33:29;;;;;;;0.30;0.20;;;20.80;99.90;;;;;;5039000;28;20442;-79
2023/10/25 09:35:56;;;;;;;0.30;0.20;;;20.80;99.90;;;;;;5039194;28;20947;-78
2023/10/25 09:38:22;;;;;;;0.30;0.20;;;20.80;99.90;;;;;;5037615;28;20417;-84
2023/10/25 09:40:50;;;;;;;0.30;0.20;;;20.60;99.90;;;;;;5036715;28;20443;-78
2023/10/25 09:43:20;;;;;;;0.30;0.20;;;20.50;99.90;;;;;;5036154;28;20445;-84
2023/10/25 09:45:56;;;;;;;0.30;0.20;;;20.40;99.90;;;;;;5039090;28;20493;-84
2023/10/25 09:48:22;;;;;;;0.30;0.20;;;20.40;99.90;;;;;;5038993;28;20505;-84
2023/10/25 09:51:01;;;;;;;0.30;0.20;;;20.40;99.90;;;;;;5036097;28;20516;-84
2023/10/25 09:53:32;;;;;;;0.30;0.20;;;20.40;99.90;;;;;;5031976;28;20467;-78
2023/10/25 09:56:11;;;;;;;0.30;0.20;;;20.40;99.90;;;;;;5033672;28;20478;-78
2023/10/25 09:58:38;;;;;;;0.30;0.20;;;20.40;99.90;;;;;;5041539;28;20508;-84
2023/10/25 10:01:05;;;;;;;0.30;0.20;;;20.40;99.90;;;;;;5029733;28;20969;-84
2023/10/25 10:03:47;;;;;;;0.30;0.20;;;20.50;99.90;;;;;;5023191;28;20441;-84
2023/10/25 10:06:24;;;;;;;0.30;0.20;;;20.40;99.90;;;;;;5041292;28;20477;-78
2023/10/25 10:08:53;;;;;;;0.30;0.20;;;20.40;99.90;;;;;;5038566;28;20399;-84
2023/10/25 10:11:24;;;;;;;0.30;0.20;;;20.50;99.90;;;;;;5031176;28;20482;-84
2023/10/25 10:14:24;;;;;;;0.30;0.20;;;20.40;99.90;;;;;;5027890;28;20928;-84
2023/10/25 10:16:50;;;;;;;0.30;0.20;;;20.50;99.90;;;;;;5032750;28;20465;-84
2023/10/25 10:19:16;;;;;;;0.30;0.20;;;20.60;99.90;;;;;;5026760;28;20461;-84
2023/10/25 10:22:06;;;;;;;0.30;0.20;;;20.70;99.90;;;;;;5038592;28;20280;-78
2023/10/25 10:24:56;;;;;;;0.30;0.20;;;20.70;99.90;;;;;;5034557;28;20217;-78
2023/10/25 10:27:54;;;;;;;0.30;0.20;;;20.80;99.90;;;;;;5036723;28;20442;-78
2023/10/25 10:30:39;;;;;;;0.30;0.20;;;20.80;99.90;;;;;;5030667;28;20459;-84
2023/10/25 10:33:09;;;;;;;0.30;0.20;;;20.80;99.90;;;;;;5038784;28;20431;-78
2023/10/25 10:35:34;;;;;;;0.30;0.20;;;20.80;99.90;;;;;;5039178;28;20978;-84
2023/10/25 10:38:00;;;;;;;0.30;0.30;;;20.80;99.90;;;;;;5039155;28;20689;-83
2023/10/25 10:40:26;;;;;;;0.30;0.20;;;20.80;99.90;;;;;;5038279;28;20813;-84
2023/10/25 10:42:52;;;;;;;0.33;0.30;;;20.90;99.90;;;;;;5062655;28;20427;-84
2023/10/25 10:45:19;;;;;;;0.30;0.20;;;20.90;99.90;;;;;;5042914;28;20549;-84
2023/10/25 10:48:16;;;;;;;0.30;0.20;;;21.00;99.90;;;;;;5043861;28;20396;-84
2023/10/25 10:50:44;;;;;;;0.30;0.20;;;21.00;99.90;;;;;;5058628;28;20558;-81
2023/10/25 10:53:10;;;;;;;0.30;0.20;;;21.20;99.90;;;;;;5045176;28;20811;-78
2023/10/25 10:55:36;;;;;;;0.60;0.60;;;21.20;99.90;;;;;;5042979;28;20442;-78
2023/10/25 10:58:02;;;;;;;0.30;0.20;;;21.30;99.90;;;;;;5042197;28;20162;-83
2023/10/25 11:00:29;;;;;;;0.30;0.20;;;21.30;99.90;;;;;;5052639;28;20454;-78
2023/10/25 11:02:55;;;;;;;0.30;0.20;;;21.20;99.90;;;;;;5064683;28;20419;-83
2023/10/25 11:05:24;;;;;;;0.30;0.20;;;21.20;99.90;;;;;;5040318;28;20955;-84
2023/10/25 11:07:51;;;;;;;0.30;0.20;;;21.20;99.90;;;;;;5038885;28;20437;-78
2023/10/25 11:10:17;;;;;;;0.30;0.20;;;21.30;99.90;;;;;;5040043;28;20532;-79
2023/10/25 11:12:43;;;;;;;0.30;0.30;;;21.30;99.90;;;;;;5051297;28;20462;-84
2023/10/25 11:15:10;;;;;;;0.30;0.20;;;21.40;99.90;;;;;;5066937;28;20602;-78
2023/10/25 11:17:37;;;;;;;0.30;0.20;;;21.40;99.90;;;;;;5039583;28;21115;-84
2023/10/25 11:20:04;;;;;;;0.30;0.20;;;21.40;99.90;;;;;;5039639;28;20788;-84
2023/10/25 11:22:30;;;;;;;0.30;0.20;;;21.50;99.90;;;;;;5037054;28;20477;-79
2023/10/25 11:24:57;;;;;;;0.30;0.20;;;21.50;99.90;;;;;;5022584;28;20558;-78
2023/10/25 11:27:32;;;;;;;0.30;0.20;;;21.60;99.90;;;;;;5045490;28;21006;-84
2023/10/25 11:30:00;;;;;;;0.30;0.20;;;21.60;99.90;;;;;;5039911;28;20919;-78
2023/10/25 11:32:28;;;;;;;0.30;0.20;;;21.70;99.90;;;;;;5043598;28;20848;-78
2023/10/25 11:34:56;;;;;;;0.30;0.20;;;21.70;99.90;;;;;;5051382;28;21182;-84
2023/10/25 11:37:22;;;;;;;0.30;0.20;;;21.70;99.90;;;;;;5056352;28;20582;-78
2023/10/25 11:39:54;;;;;;;0.30;0.20;;;21.70;99.90;;;;;;5045467;28;20485;-79
2023/10/25 11:42:20;;;;;;;0.30;0.20;;;21.70;99.90;;;;;;5044018;28;20851;-79
2023/10/25 11:44:46;;;;;;;0.30;0.20;;;21.70;99.90;;;;;;5039618;28;20550;-78
2023/10/25 11:47:19;;;;;;;0.30;0.20;;;21.60;99.90;;;;;;5040114;28;20273;-79
2023/10/25 11:49:51;;;;;;;0.30;0.20;;;21.60;99.90;;;;;;5039213;28;20442;-84
2023/10/25 11:52:21;;;;;;;0.30;0.20;;;21.50;99.90;;;;;;5034932;28;20461;-85
2023/10/25 11:54:47;;;;;;;0.30;0.20;;;21.60;99.90;;;;;;5027051;28;20470;-84
2023/10/25 11:57:12;;;;;;;0.30;0.20;;;21.50;99.90;;;;;;5042959;28;20422;-80
2023/10/25 11:59:38;;;;;;;0.30;0.20;;;21.60;99.90;;;;;;5041535;28;20483;-78
2023/10/25 12:02:04;;;;;;;0.30;0.20;;;21.50;99.90;;;;;;5027783;28;20671;-83
2023/10/25 12:04:29;;;;;;;0.30;0.20;;;21.50;99.90;;;;;;5041346;28;20638;-84
2023/10/25 12:06:55;;;;;;;0.30;0.20;;;21.60;99.90;;;;;;5037226;28;20197;-78
2023/10/25 12:09:21;;;;;;;0.30;0.20;;;21.60;99.90;;;;;;5042331;28;20555;-78
2023/10/25 12:11:46;;;;;;;0.30;0.20;;;21.60;99.90;;;;;;5039155;28;20189;-84
2023/10/25 12:14:12;;;;;;;0.30;0.20;;;21.70;99.90;;;;;;5039026;28;20256;-78
2023/10/25 12:16:37;;;;;;;0.30;0.20;;;21.70;99.90;;;;;;5043511;28;20194;-84
2023/10/25 12:19:03;;;;;;;0.30;0.20;;;21.80;99.90;;;;;;5044066;28;20194;-78
2023/10/25 12:21:31;;;;;;;0.30;0.20;;;21.90;99.90;;;;;;5044017;28;20212;-84
2023/10/25 12:23:56;;;;;;;0.30;0.20;;;22.00;99.90;;;;;;5031013;28;20186;-84
2023/10/25 12:26:22;;;;;;;0.30;0.20;;;21.90;99.90;;;;;;5030989;28;20796;-80
2023/10/25 12:28:47;;;;;;;0.30;0.20;;;21.90;99.90;;;;;;5030303;28;20617;-78
2023/10/25 12:31:13;;;;;;;0.30;0.20;;;21.90;99.90;;;;;;5040918;28;20260;-78
2023/10/25 12:33:39;;;;;;;0.50;0.40;;;22.00;99.90;;;;;;5040966;28;20182;-78
2023/10/25 12:36:05;;;;;;;0.30;0.20;;;22.10;99.90;;;;;;5038063;28;20229;-85
2023/10/25 12:38:30;;;;;;;0.30;0.20;;;22.10;99.90;;;;;;5032592;28;20458;-82
2023/10/25 12:40:56;;;;;;;0.30;0.20;;;22.10;99.90;;;;;;5034763;28;20207;-78
2023/10/25 12:43:21;;;;;;;0.30;0.20;;;22.10;99.90;;;;;;5057082;28;20447;-78
2023/10/25 12:45:47;;;;;;;0.30;0.20;;;22.10;99.90;;;;;;5041641;28;20320;-84
2023/10/25 12:48:13;;;;;;;0.30;0.20;;;22.20;99.90;;;;;;5040089;28;20174;-84